首页
METAR-TAF:

METAR-TAF

机场 :

舊金山國際機場

旧金山, 加利福尼亚州, 美国

纬度: 37-37-11N, 经度: 122-21-53W, 海拔: 3米

当前天气观测

该预报发布于53分钟前的15:56 UTC
静风
温度 18°C
湿度 68%
气压 1014 hPa
能見度: 16.1公里
少量云层高于900英尺
散云层高于1500英尺

METAR: KSFO 111556Z 00000KT 10SM FEW009 SCT015 18/12 A2995 RMK AO2 SLP140 T01830122

时间: 09:49 (16:49 UTC)

预报

该预报发布于1小时和47分钟前的15:02 UTC
预报有效从11日的 15点(UTC)到 12日的 18点(UTC)
风速3节,风向多变
能見度: 10公里
少量云层高于900英尺
多云层高于1500英尺
从 11日的 1700点(UTC)
风速8节,风向西
能見度: 10公里
少量云层高于800英尺
从 11日的 1900点(UTC)
风速12节,风向西转西北
能見度: 10公里
少量云层高于800英尺
从 11日的 2300点(UTC)
风速16节,风向西转西北,有时为20节阵风
能見度: 10公里
天空无云
从 12日的 0400点(UTC)
风速12节,风向西转西北
能見度: 10公里
少量云层高于1000英尺
从 12日的 0800点(UTC)
风速8节,风向西转西北
能見度: 10公里
少量云层高于600英尺
从 12日的 1300点(UTC)
风速6节,风向西转西北
能見度: 10公里
多云层高于800英尺

TAF: KSFO 111502Z 1115/1218 VRB03KT P6SM FEW009 BKN015 FM111700 26008KT P6SM FEW008 FM111900 29012KT P6SM FEW008 FM112300 29016G20KT P6SM SKC FM120400 29012KT P6SM FEW010 FM120800 30008KT P6SM FEW006 FM121300 30006KT P6SM BKN008

超过4000个机场的气象观测和天气预报(METAR&TAF报告)。

可查询的气象台以黄色和红色小点在地图上表示。

将鼠标移到小点上方,可查看气象台名称。

然后点击查看天气观测和预报。

如需切换地图:点击带黑十字的绿色按钮放大地图;点击带横线的绿色按钮缩小地图;或者点击绿色箭头查看邻近地区的地图。


METAR-TAF: